LBWNLBBG

Guest
Details From LBWN - Varna Airport
To LBBG - Burgas
Flight Number -
Tags generated
Created
Modified
Stats Distance 42 nm / 78 km
Max Altitude 0 ft / 0 m
Waypoints 3
Social Downloads 0
Likes 0
Share VATSIM

Download

Looking for another format? Having issues loading an existing format? Contact us
Advertisement - Login to hide

Notes

Basic altitude profile: - Ascent Rate: 2500ft/min - Ascent Speed: 250kts - Cruise Altitude: 35000ft - Cruise Speed: 420kts - Descent Rate: 1500ft/min - Descent Speed: 250kts Options: - Use NATs: yes - Use PACOTS: yes - Use low airways: yes - Use high airways: yes

Route

LBWN BGS LBBG

ID Type Via Altitude (ft/m) Position (lat/lon) Dist (leg/tot) Name
O LBWN APT - 0 / 0 43.23200 / 27.82530 - / 0 nm Varna Airport
BGS DME - 0 / 0 42.57110 / 27.51990 41 / 41 nm BURGAS VOR-DME
O LBBG APT - 0 / 0 42.57010 / 27.51530 0 / 42 nm Burgas

Altitude Profile

Advertisement - Login to hide

LBWN

Details ICAO LBWN (VAR)
Name Varna Airport
Region Bulgaria
Timezone Europe/Sofia (UTC+3.0)
Stats Elevation 229 ft / 70 m (AMSL)
Location 43.232000° 27.825300°
Runways 1
Magnetic Variation 5.887° E

METAR

LBWN 060330Z 04018KT CAVOK 08/M01 Q1027 NOSIG

Decode

TAF

TAF LBWN 052300Z 0600/0624 05016KT CAVOK TEMPO 0602/0614 03022G34KT

Decode

Departure Runways

ID Width Length Bearing (true/mag) Surface Threshold Overrun Markings Lighting
09 148 ft / 45 m 8,443 ft / 2,573 m 96.95° / 91.06° ASPHALT 98 ft / 30 m 0 ft / 0 m PREC-APP CENTERLINE EDGE THRESHOLD REIL-OMNI
27 148 ft / 45 m 8,443 ft / 2,573 m 276.97° / 271.08° ASPHALT 112 ft / 34 m 0 ft / 0 m PREC-APP CENTERLINE EDGE THRESHOLD REIL-OMNI

LBBG

Details ICAO LBBG (BOJ)
Name Burgas
Region Bulgaria
Timezone Europe/Sofia (UTC+3.0)
Stats Elevation 134 ft / 41 m (AMSL)
Location 42.570100° 27.515300°
Runways 1
Magnetic Variation 5.740° E

METAR

LBBG 060330Z 05022G32KT CAVOK 10/01 Q1026 NOSIG

Decode

TAF

TAF LBBG 052300Z 0600/0624 04022G34KT CAVOK BECMG 0619/0621 04016KT

Decode

Destination Runways

ID Width Length Bearing (true/mag) Surface Threshold Overrun Markings Lighting
04 148 ft / 45 m 10,509 ft / 3,203 m 44.26° / 38.52° CONCRETE 0 ft / 0 m 0 ft / 0 m PREC-APP CENTERLINE EDGE THRESHOLD ALSF-I
22 148 ft / 45 m 10,509 ft / 3,203 m 224.28° / 218.54° CONCRETE 0 ft / 0 m 0 ft / 0 m PREC-APP CENTERLINE EDGE THRESHOLD ALSF-II TDZ

Approach Navaids

Runway Type Ident Frequency Range Bearing (true/mag) Slope Elevation
22 MM MM - - 224.28° / 218.54 ° - 135 ft / 41 m (AMSL)
22 GS IBG 110.30 MHz 10 nm / 19 km 224.27° / 218.53 ° 3.00° 134 ft / 41 m (AMSL)
22 LOC-ILS IBG 110.30 MHz 18 nm / 33 km 224.27° / 218.53 ° - 134 ft / 41 m (AMSL)
22 OM OM - - 224.28° / 218.54 ° - 135 ft / 41 m (AMSL)

Popular Alternatives